sensor_id;sensor_type;location;lat;lon;timestamp;P1;durP1;ratioP1;P2;durP2;ratioP2
44189;SDS011;29856;52.144;5.430;2023-02-10T00:01:11;24.45;;;11.90;;
44189;SDS011;29856;52.144;5.430;2023-02-10T00:03:38;19.17;;;9.50;;
44189;SDS011;29856;52.144;5.430;2023-02-10T00:06:04;17.90;;;10.18;;
44189;SDS011;29856;52.144;5.430;2023-02-10T00:08:33;31.17;;;10.85;;
44189;SDS011;29856;52.144;5.430;2023-02-10T00:11:04;26.48;;;11.95;;
44189;SDS011;29856;52.144;5.430;2023-02-10T00:13:39;21.17;;;10.25;;
44189;SDS011;29856;52.144;5.430;2023-02-10T00:16:05;24.95;;;10.30;;
44189;SDS011;29856;52.144;5.430;2023-02-10T00:18:32;18.00;;;8.50;;
44189;SDS011;29856;52.144;5.430;2023-02-10T00:21:32;20.63;;;9.40;;
44189;SDS011;29856;52.144;5.430;2023-02-10T00:23:50;22.20;;;11.38;;
44189;SDS011;29856;52.144;5.430;2023-02-10T00:26:15;22.88;;;10.98;;
44189;SDS011;29856;52.144;5.430;2023-02-10T00:28:41;19.80;;;9.45;;
44189;SDS011;29856;52.144;5.430;2023-02-10T00:31:11;19.92;;;10.25;;
44189;SDS011;29856;52.144;5.430;2023-02-10T00:33:39;16.83;;;9.73;;
44189;SDS011;29856;52.144;5.430;2023-02-10T00:36:09;18.92;;;9.30;;
44189;SDS011;29856;52.144;5.430;2023-02-10T00:38:36;19.60;;;9.85;;
44189;SDS011;29856;52.144;5.430;2023-02-10T00:41:13;16.00;;;7.85;;
44189;SDS011;29856;52.144;5.430;2023-02-10T00:43:40;19.60;;;8.80;;
44189;SDS011;29856;52.144;5.430;2023-02-10T00:46:06;20.00;;;9.23;;
44189;SDS011;29856;52.144;5.430;2023-02-10T00:48:32;15.35;;;8.13;;
44189;SDS011;29856;52.144;5.430;2023-02-10T00:50:58;18.38;;;8.80;;
44189;SDS011;29856;52.144;5.430;2023-02-10T00:53:23;14.93;;;7.38;;
44189;SDS011;29856;52.144;5.430;2023-02-10T00:55:49;14.13;;;8.57;;
44189;SDS011;29856;52.144;5.430;2023-02-10T00:58:15;13.27;;;7.60;;
44189;SDS011;29856;52.144;5.430;2023-02-10T01:00:40;13.52;;;6.75;;
44189;SDS011;29856;52.144;5.430;2023-02-10T01:03:06;19.70;;;8.35;;
44189;SDS011;29856;52.144;5.430;2023-02-10T01:05:31;17.70;;;8.45;;
44189;SDS011;29856;52.144;5.430;2023-02-10T01:07:57;12.52;;;7.00;;
44189;SDS011;29856;52.144;5.430;2023-02-10T01:10:22;17.33;;;7.93;;
44189;SDS011;29856;52.144;5.430;2023-02-10T01:12:49;14.48;;;7.72;;
44189;SDS011;29856;52.144;5.430;2023-02-10T01:15:14;18.20;;;8.52;;
44189;SDS011;29856;52.144;5.430;2023-02-10T01:17:40;14.75;;;6.70;;
44189;SDS011;29856;52.144;5.430;2023-02-10T01:20:06;12.60;;;7.38;;
44189;SDS011;29856;52.144;5.430;2023-02-10T01:22:33;15.65;;;7.93;;
44189;SDS011;29856;52.144;5.430;2023-02-10T01:24:58;13.23;;;6.88;;
44189;SDS011;29856;52.144;5.430;2023-02-10T01:27:24;15.45;;;8.05;;
44189;SDS011;29856;52.144;5.430;2023-02-10T01:29:49;18.27;;;8.85;;
44189;SDS011;29856;52.144;5.430;2023-02-10T01:35:08;15.13;;;7.82;;
44189;SDS011;29856;52.144;5.430;2023-02-10T01:37:36;17.27;;;8.43;;
44189;SDS011;29856;52.144;5.430;2023-02-10T01:40:02;13.05;;;8.48;;
44189;SDS011;29856;52.144;5.430;2023-02-10T01:42:28;14.85;;;7.63;;
44189;SDS011;29856;52.144;5.430;2023-02-10T01:47:19;16.40;;;8.18;;
44189;SDS011;29856;52.144;5.430;2023-02-10T01:49:46;16.52;;;8.32;;
44189;SDS011;29856;52.144;5.430;2023-02-10T01:52:18;16.77;;;9.18;;
44189;SDS011;29856;52.144;5.430;2023-02-10T01:54:49;16.80;;;8.38;;
44189;SDS011;29856;52.144;5.430;2023-02-10T01:57:21;12.13;;;7.90;;
44189;SDS011;29856;52.144;5.430;2023-02-10T01:59:47;21.55;;;9.02;;
44189;SDS011;29856;52.144;5.430;2023-02-10T02:02:14;17.30;;;8.23;;
44189;SDS011;29856;52.144;5.430;2023-02-10T02:04:52;14.52;;;7.85;;
44189;SDS011;29856;52.144;5.430;2023-02-10T02:07:23;16.63;;;6.75;;
44189;SDS011;29856;52.144;5.430;2023-02-10T02:09:52;13.85;;;7.47;;
44189;SDS011;29856;52.144;5.430;2023-02-10T02:12:27;17.38;;;8.13;;
44189;SDS011;29856;52.144;5.430;2023-02-10T02:26:08;12.90;;;8.52;;
44189;SDS011;29856;52.144;5.430;2023-02-10T02:28:35;11.25;;;6.65;;
44189;SDS011;29856;52.144;5.430;2023-02-10T02:33:51;17.33;;;9.60;;
44189;SDS011;29856;52.144;5.430;2023-02-10T02:36:23;12.93;;;8.75;;
44189;SDS011;29856;52.144;5.430;2023-02-10T02:38:58;15.18;;;6.50;;
44189;SDS011;29856;52.144;5.430;2023-02-10T02:41:25;14.98;;;7.75;;
44189;SDS011;29856;52.144;5.430;2023-02-10T02:43:51;13.23;;;7.72;;
44189;SDS011;29856;52.144;5.430;2023-02-10T02:49:09;17.00;;;8.80;;
44189;SDS011;29856;52.144;5.430;2023-02-10T02:51:49;15.40;;;7.95;;
44189;SDS011;29856;52.144;5.430;2023-02-10T02:57:25;19.40;;;10.15;;
44189;SDS011;29856;52.144;5.430;2023-02-10T03:00:05;18.70;;;10.73;;
44189;SDS011;29856;52.144;5.430;2023-02-10T03:02:37;16.60;;;8.43;;
44189;SDS011;29856;52.144;5.430;2023-02-10T03:05:04;13.25;;;7.03;;
44189;SDS011;29856;52.144;5.430;2023-02-10T03:07:30;13.80;;;8.05;;
44189;SDS011;29856;52.144;5.430;2023-02-10T03:09:55;13.98;;;7.15;;
44189;SDS011;29856;52.144;5.430;2023-02-10T03:12:21;15.40;;;7.43;;
44189;SDS011;29856;52.144;5.430;2023-02-10T03:14:46;17.60;;;9.95;;
44189;SDS011;29856;52.144;5.430;2023-02-10T03:17:11;21.10;;;10.65;;
44189;SDS011;29856;52.144;5.430;2023-02-10T03:19:37;15.50;;;9.38;;
44189;SDS011;29856;52.144;5.430;2023-02-10T03:22:03;17.88;;;8.60;;
44189;SDS011;29856;52.144;5.430;2023-02-10T03:24:28;17.67;;;8.50;;
44189;SDS011;29856;52.144;5.430;2023-02-10T03:26:54;18.23;;;9.55;;
44189;SDS011;29856;52.144;5.430;2023-02-10T03:29:19;14.57;;;8.60;;
44189;SDS011;29856;52.144;5.430;2023-02-10T03:31:45;16.00;;;8.80;;
44189;SDS011;29856;52.144;5.430;2023-02-10T03:34:10;17.88;;;9.65;;
44189;SDS011;29856;52.144;5.430;2023-02-10T03:36:36;18.52;;;9.63;;
44189;SDS011;29856;52.144;5.430;2023-02-10T03:39:02;15.32;;;10.05;;
44189;SDS011;29856;52.144;5.430;2023-02-10T03:41:28;19.52;;;10.75;;
44189;SDS011;29856;52.144;5.430;2023-02-10T03:43:54;21.17;;;10.70;;
44189;SDS011;29856;52.144;5.430;2023-02-10T03:46:19;24.35;;;14.50;;
44189;SDS011;29856;52.144;5.430;2023-02-10T03:48:45;18.02;;;11.38;;
44189;SDS011;29856;52.144;5.430;2023-02-10T03:51:10;16.67;;;11.13;;
44189;SDS011;29856;52.144;5.430;2023-02-10T03:53:36;21.67;;;12.75;;
44189;SDS011;29856;52.144;5.430;2023-02-10T03:56:02;16.67;;;10.48;;
44189;SDS011;29856;52.144;5.430;2023-02-10T03:58:28;18.60;;;11.25;;
44189;SDS011;29856;52.144;5.430;2023-02-10T04:00:53;18.30;;;11.73;;
44189;SDS011;29856;52.144;5.430;2023-02-10T04:03:19;21.65;;;13.02;;
44189;SDS011;29856;52.144;5.430;2023-02-10T04:05:44;19.13;;;12.77;;
44189;SDS011;29856;52.144;5.430;2023-02-10T04:08:10;24.52;;;15.18;;
44189;SDS011;29856;52.144;5.430;2023-02-10T04:10:35;23.92;;;14.35;;
44189;SDS011;29856;52.144;5.430;2023-02-10T04:13:01;24.92;;;13.48;;
44189;SDS011;29856;52.144;5.430;2023-02-10T04:15:27;22.73;;;14.73;;
44189;SDS011;29856;52.144;5.430;2023-02-10T04:17:52;21.42;;;14.30;;
44189;SDS011;29856;52.144;5.430;2023-02-10T04:20:18;20.23;;;13.55;;
44189;SDS011;29856;52.144;5.430;2023-02-10T04:22:43;26.83;;;17.13;;
44189;SDS011;29856;52.144;5.430;2023-02-10T04:25:11;21.90;;;13.68;;
44189;SDS011;29856;52.144;5.430;2023-02-10T04:27:37;20.85;;;13.90;;
44189;SDS011;29856;52.144;5.430;2023-02-10T04:30:02;23.77;;;14.23;;
44189;SDS011;29856;52.144;5.430;2023-02-10T04:32:28;19.20;;;12.70;;
44189;SDS011;29856;52.144;5.430;2023-02-10T04:34:54;21.63;;;13.80;;
44189;SDS011;29856;52.144;5.430;2023-02-10T04:37:19;21.67;;;14.02;;
44189;SDS011;29856;52.144;5.430;2023-02-10T04:39:45;21.73;;;13.68;;
44189;SDS011;29856;52.144;5.430;2023-02-10T04:42:13;19.73;;;13.50;;
44189;SDS011;29856;52.144;5.430;2023-02-10T04:44:39;22.55;;;12.88;;
44189;SDS011;29856;52.144;5.430;2023-02-10T04:47:04;22.50;;;14.85;;
44189;SDS011;29856;52.144;5.430;2023-02-10T04:49:30;22.20;;;13.32;;
44189;SDS011;29856;52.144;5.430;2023-02-10T04:51:55;22.67;;;16.40;;
44189;SDS011;29856;52.144;5.430;2023-02-10T04:54:20;19.75;;;14.10;;
44189;SDS011;29856;52.144;5.430;2023-02-10T04:56:46;23.67;;;14.85;;
44189;SDS011;29856;52.144;5.430;2023-02-10T04:59:12;26.17;;;15.55;;
44189;SDS011;29856;52.144;5.430;2023-02-10T05:01:37;17.65;;;13.63;;
44189;SDS011;29856;52.144;5.430;2023-02-10T05:04:03;24.05;;;15.48;;
44189;SDS011;29856;52.144;5.430;2023-02-10T05:06:28;22.00;;;14.38;;
44189;SDS011;29856;52.144;5.430;2023-02-10T05:08:54;29.40;;;17.10;;
44189;SDS011;29856;52.144;5.430;2023-02-10T05:11:20;21.98;;;15.20;;
44189;SDS011;29856;52.144;5.430;2023-02-10T05:13:45;26.38;;;18.15;;
44189;SDS011;29856;52.144;5.430;2023-02-10T05:16:11;20.48;;;14.15;;
44189;SDS011;29856;52.144;5.430;2023-02-10T05:18:38;23.70;;;16.30;;
44189;SDS011;29856;52.144;5.430;2023-02-10T05:21:04;30.98;;;18.30;;
44189;SDS011;29856;52.144;5.430;2023-02-10T05:23:29;28.45;;;16.90;;
44189;SDS011;29856;52.144;5.430;2023-02-10T05:25:55;27.92;;;15.93;;
44189;SDS011;29856;52.144;5.430;2023-02-10T05:28:20;26.98;;;17.92;;
44189;SDS011;29856;52.144;5.430;2023-02-10T05:30:46;24.25;;;16.58;;
44189;SDS011;29856;52.144;5.430;2023-02-10T05:33:12;24.27;;;14.73;;
44189;SDS011;29856;52.144;5.430;2023-02-10T05:35:38;24.50;;;16.27;;
44189;SDS011;29856;52.144;5.430;2023-02-10T05:38:04;26.30;;;16.58;;
44189;SDS011;29856;52.144;5.430;2023-02-10T05:40:30;22.58;;;15.32;;
44189;SDS011;29856;52.144;5.430;2023-02-10T05:42:56;20.48;;;13.23;;
44189;SDS011;29856;52.144;5.430;2023-02-10T05:45:21;21.73;;;14.50;;
44189;SDS011;29856;52.144;5.430;2023-02-10T05:47:47;32.85;;;19.27;;
44189;SDS011;29856;52.144;5.430;2023-02-10T05:50:13;27.05;;;17.38;;
44189;SDS011;29856;52.144;5.430;2023-02-10T05:52:39;27.65;;;18.63;;
44189;SDS011;29856;52.144;5.430;2023-02-10T05:55:04;26.25;;;16.80;;
44189;SDS011;29856;52.144;5.430;2023-02-10T05:57:30;25.98;;;16.42;;
44189;SDS011;29856;52.144;5.430;2023-02-10T05:59:56;25.70;;;16.35;;
44189;SDS011;29856;52.144;5.430;2023-02-10T06:02:21;23.73;;;14.40;;
44189;SDS011;29856;52.144;5.430;2023-02-10T06:04:47;28.65;;;17.00;;
44189;SDS011;29856;52.144;5.430;2023-02-10T06:07:13;30.08;;;18.58;;
44189;SDS011;29856;52.144;5.430;2023-02-10T06:09:38;28.08;;;16.60;;
44189;SDS011;29856;52.144;5.430;2023-02-10T06:12:04;28.48;;;17.10;;
44189;SDS011;29856;52.144;5.430;2023-02-10T06:14:29;23.42;;;15.75;;
44189;SDS011;29856;52.144;5.430;2023-02-10T06:16:55;25.70;;;16.40;;
44189;SDS011;29856;52.144;5.430;2023-02-10T06:19:20;24.90;;;15.85;;
44189;SDS011;29856;52.144;5.430;2023-02-10T06:21:46;25.88;;;17.13;;
44189;SDS011;29856;52.144;5.430;2023-02-10T06:24:11;33.97;;;22.02;;
44189;SDS011;29856;52.144;5.430;2023-02-10T06:26:37;27.13;;;17.35;;
44189;SDS011;29856;52.144;5.430;2023-02-10T06:29:02;33.03;;;17.52;;
44189;SDS011;29856;52.144;5.430;2023-02-10T06:31:28;26.85;;;16.85;;
44189;SDS011;29856;52.144;5.430;2023-02-10T06:33:53;30.50;;;19.27;;
44189;SDS011;29856;52.144;5.430;2023-02-10T06:36:19;24.23;;;15.82;;
44189;SDS011;29856;52.144;5.430;2023-02-10T06:38:44;31.25;;;16.67;;
44189;SDS011;29856;52.144;5.430;2023-02-10T06:41:10;28.05;;;16.63;;
44189;SDS011;29856;52.144;5.430;2023-02-10T06:49:38;24.05;;;16.13;;
44189;SDS011;29856;52.144;5.430;2023-02-10T06:52:03;28.58;;;18.42;;
44189;SDS011;29856;52.144;5.430;2023-02-10T06:54:29;25.77;;;15.70;;
44189;SDS011;29856;52.144;5.430;2023-02-10T06:59:45;29.77;;;17.63;;
44189;SDS011;29856;52.144;5.430;2023-02-10T07:02:11;29.15;;;17.08;;
44189;SDS011;29856;52.144;5.430;2023-02-10T07:04:39;28.35;;;16.70;;
44189;SDS011;29856;52.144;5.430;2023-02-10T07:07:05;26.80;;;16.85;;
44189;SDS011;29856;52.144;5.430;2023-02-10T07:09:30;29.35;;;16.02;;
44189;SDS011;29856;52.144;5.430;2023-02-10T07:11:57;24.75;;;14.63;;
44189;SDS011;29856;52.144;5.430;2023-02-10T07:14:22;29.50;;;19.10;;
44189;SDS011;29856;52.144;5.430;2023-02-10T07:16:48;23.45;;;16.77;;
44189;SDS011;29856;52.144;5.430;2023-02-10T07:19:14;28.02;;;16.95;;
44189;SDS011;29856;52.144;5.430;2023-02-10T07:21:39;25.42;;;14.68;;
44189;SDS011;29856;52.144;5.430;2023-02-10T07:24:05;29.58;;;17.48;;
44189;SDS011;29856;52.144;5.430;2023-02-10T07:26:31;27.70;;;16.77;;
44189;SDS011;29856;52.144;5.430;2023-02-10T07:28:57;25.67;;;15.90;;
44189;SDS011;29856;52.144;5.430;2023-02-10T07:31:22;20.83;;;14.23;;
44189;SDS011;29856;52.144;5.430;2023-02-10T07:33:48;25.05;;;16.08;;
44189;SDS011;29856;52.144;5.430;2023-02-10T07:36:13;23.55;;;15.75;;
44189;SDS011;29856;52.144;5.430;2023-02-10T07:38:39;27.50;;;16.50;;
44189;SDS011;29856;52.144;5.430;2023-02-10T07:41:05;25.77;;;15.35;;
44189;SDS011;29856;52.144;5.430;2023-02-10T07:43:31;25.02;;;14.50;;
44189;SDS011;29856;52.144;5.430;2023-02-10T07:45:57;25.50;;;14.68;;
44189;SDS011;29856;52.144;5.430;2023-02-10T07:48:22;26.70;;;15.15;;
44189;SDS011;29856;52.144;5.430;2023-02-10T07:50:48;23.85;;;14.57;;
44189;SDS011;29856;52.144;5.430;2023-02-10T07:53:14;23.50;;;14.55;;
44189;SDS011;29856;52.144;5.430;2023-02-10T07:55:40;24.98;;;14.88;;
44189;SDS011;29856;52.144;5.430;2023-02-10T07:58:05;21.13;;;13.07;;
44189;SDS011;29856;52.144;5.430;2023-02-10T08:00:31;18.67;;;12.43;;
44189;SDS011;29856;52.144;5.430;2023-02-10T08:02:57;23.95;;;14.20;;
44189;SDS011;29856;52.144;5.430;2023-02-10T08:05:23;27.30;;;15.48;;
44189;SDS011;29856;52.144;5.430;2023-02-10T08:07:48;22.23;;;14.27;;
44189;SDS011;29856;52.144;5.430;2023-02-10T08:10:14;23.60;;;14.07;;
44189;SDS011;29856;52.144;5.430;2023-02-10T08:12:39;24.52;;;12.75;;
44189;SDS011;29856;52.144;5.430;2023-02-10T08:15:05;20.92;;;12.55;;
44189;SDS011;29856;52.144;5.430;2023-02-10T08:17:32;23.75;;;13.98;;
44189;SDS011;29856;52.144;5.430;2023-02-10T08:19:57;20.92;;;14.02;;
44189;SDS011;29856;52.144;5.430;2023-02-10T08:22:23;19.90;;;13.82;;
44189;SDS011;29856;52.144;5.430;2023-02-10T08:24:48;19.63;;;12.63;;
44189;SDS011;29856;52.144;5.430;2023-02-10T08:27:14;23.98;;;14.63;;
44189;SDS011;29856;52.144;5.430;2023-02-10T08:29:40;22.55;;;14.50;;
44189;SDS011;29856;52.144;5.430;2023-02-10T08:32:05;21.08;;;13.80;;
44189;SDS011;29856;52.144;5.430;2023-02-10T08:34:31;20.98;;;13.63;;
44189;SDS011;29856;52.144;5.430;2023-02-10T08:36:56;21.20;;;14.45;;
44189;SDS011;29856;52.144;5.430;2023-02-10T08:39:22;21.33;;;12.77;;
44189;SDS011;29856;52.144;5.430;2023-02-10T08:41:47;20.92;;;12.70;;
44189;SDS011;29856;52.144;5.430;2023-02-10T08:44:13;23.25;;;15.65;;
44189;SDS011;29856;52.144;5.430;2023-02-10T08:46:40;21.35;;;15.02;;
44189;SDS011;29856;52.144;5.430;2023-02-10T08:49:06;24.15;;;16.30;;
44189;SDS011;29856;52.144;5.430;2023-02-10T08:51:32;26.73;;;17.38;;
44189;SDS011;29856;52.144;5.430;2023-02-10T08:53:57;25.27;;;17.30;;
44189;SDS011;29856;52.144;5.430;2023-02-10T08:56:26;21.83;;;15.40;;
44189;SDS011;29856;52.144;5.430;2023-02-10T08:58:51;29.83;;;16.65;;
44189;SDS011;29856;52.144;5.430;2023-02-10T09:01:20;27.33;;;17.95;;
44189;SDS011;29856;52.144;5.430;2023-02-10T09:03:48;26.45;;;16.73;;
44189;SDS011;29856;52.144;5.430;2023-02-10T09:06:18;28.95;;;18.58;;
44189;SDS011;29856;52.144;5.430;2023-02-10T09:08:46;29.10;;;19.00;;
44189;SDS011;29856;52.144;5.430;2023-02-10T09:11:12;33.15;;;18.60;;
44189;SDS011;29856;52.144;5.430;2023-02-10T09:13:38;29.63;;;18.30;;
44189;SDS011;29856;52.144;5.430;2023-02-10T09:16:03;24.50;;;17.60;;
44189;SDS011;29856;52.144;5.430;2023-02-10T09:18:29;30.00;;;19.08;;
44189;SDS011;29856;52.144;5.430;2023-02-10T09:20:56;30.30;;;20.10;;
44189;SDS011;29856;52.144;5.430;2023-02-10T09:23:22;29.02;;;18.63;;
44189;SDS011;29856;52.144;5.430;2023-02-10T09:26:21;29.17;;;18.70;;
44189;SDS011;29856;52.144;5.430;2023-02-10T09:28:43;29.40;;;19.15;;
44189;SDS011;29856;52.144;5.430;2023-02-10T09:31:09;37.10;;;20.50;;
44189;SDS011;29856;52.144;5.430;2023-02-10T09:33:36;33.13;;;19.08;;
44189;SDS011;29856;52.144;5.430;2023-02-10T09:36:05;32.05;;;19.38;;
44189;SDS011;29856;52.144;5.430;2023-02-10T09:38:32;33.85;;;20.42;;
44189;SDS011;29856;52.144;5.430;2023-02-10T09:52:49;31.30;;;19.77;;
44189;SDS011;29856;52.144;5.430;2023-02-10T09:55:56;30.13;;;19.67;;
44189;SDS011;29856;52.144;5.430;2023-02-10T09:58:31;30.13;;;18.20;;
44189;SDS011;29856;52.144;5.430;2023-02-10T10:03:39;38.60;;;21.70;;
44189;SDS011;29856;52.144;5.430;2023-02-10T10:06:22;33.88;;;18.42;;
44189;SDS011;29856;52.144;5.430;2023-02-10T10:14:50;28.15;;;17.05;;
44189;SDS011;29856;52.144;5.430;2023-02-10T10:20:17;31.58;;;18.75;;
44189;SDS011;29856;52.144;5.430;2023-02-10T10:28:41;27.52;;;17.33;;
44189;SDS011;29856;52.144;5.430;2023-02-10T10:36:06;21.83;;;13.85;;
44189;SDS011;29856;52.144;5.430;2023-02-10T10:38:42;23.88;;;15.98;;
44189;SDS011;29856;52.144;5.430;2023-02-10T10:41:12;26.40;;;15.23;;
44189;SDS011;29856;52.144;5.430;2023-02-10T10:43:49;32.53;;;16.95;;
44189;SDS011;29856;52.144;5.430;2023-02-10T10:46:19;28.17;;;16.73;;
44189;SDS011;29856;52.144;5.430;2023-02-10T10:48:59;27.65;;;15.52;;
44189;SDS011;29856;52.144;5.430;2023-02-10T10:51:25;29.55;;;15.75;;
44189;SDS011;29856;52.144;5.430;2023-02-10T10:53:54;26.60;;;15.68;;
44189;SDS011;29856;52.144;5.430;2023-02-10T10:56:30;23.42;;;14.75;;
44189;SDS011;29856;52.144;5.430;2023-02-10T10:59:13;24.52;;;12.82;;
44189;SDS011;29856;52.144;5.430;2023-02-10T11:01:43;26.95;;;15.32;;
44189;SDS011;29856;52.144;5.430;2023-02-10T11:04:11;25.33;;;14.13;;
44189;SDS011;29856;52.144;5.430;2023-02-10T11:06:42;24.50;;;14.25;;
44189;SDS011;29856;52.144;5.430;2023-02-10T11:09:20;29.40;;;13.77;;
44189;SDS011;29856;52.144;5.430;2023-02-10T11:12:02;25.35;;;12.45;;
44189;SDS011;29856;52.144;5.430;2023-02-10T11:14:40;27.23;;;14.60;;
44189;SDS011;29856;52.144;5.430;2023-02-10T11:17:41;22.70;;;12.80;;
44189;SDS011;29856;52.144;5.430;2023-02-10T11:22:27;27.45;;;13.98;;
44189;SDS011;29856;52.144;5.430;2023-02-10T11:24:54;24.50;;;13.13;;
44189;SDS011;29856;52.144;5.430;2023-02-10T11:27:48;32.28;;;15.18;;
44189;SDS011;29856;52.144;5.430;2023-02-10T11:32:51;32.17;;;14.90;;
44189;SDS011;29856;52.144;5.430;2023-02-10T11:35:17;26.45;;;15.60;;
44189;SDS011;29856;52.144;5.430;2023-02-10T11:37:42;25.50;;;14.90;;
44189;SDS011;29856;52.144;5.430;2023-02-10T11:40:25;25.00;;;13.80;;
44189;SDS011;29856;52.144;5.430;2023-02-10T11:42:57;31.35;;;15.27;;
44189;SDS011;29856;52.144;5.430;2023-02-10T11:45:31;25.85;;;14.27;;
44189;SDS011;29856;52.144;5.430;2023-02-10T11:48:05;26.85;;;13.88;;
44189;SDS011;29856;52.144;5.430;2023-02-10T11:50:43;29.05;;;14.43;;
44189;SDS011;29856;52.144;5.430;2023-02-10T11:53:23;24.98;;;13.65;;
44189;SDS011;29856;52.144;5.430;2023-02-10T12:01:52;23.20;;;13.10;;
44189;SDS011;29856;52.144;5.430;2023-02-10T12:04:30;27.75;;;14.50;;
44189;SDS011;29856;52.144;5.430;2023-02-10T12:10:23;25.33;;;13.43;;
44189;SDS011;29856;52.144;5.430;2023-02-10T12:15:49;24.17;;;13.55;;
44189;SDS011;29856;52.144;5.430;2023-02-10T12:24:07;29.88;;;13.65;;
44189;SDS011;29856;52.144;5.430;2023-02-10T12:29:38;26.05;;;14.00;;
44189;SDS011;29856;52.144;5.430;2023-02-10T12:52:41;29.95;;;14.77;;
44189;SDS011;29856;52.144;5.430;2023-02-10T12:55:29;27.02;;;12.23;;
44189;SDS011;29856;52.144;5.430;2023-02-10T12:58:14;33.95;;;14.35;;
44189;SDS011;29856;52.144;5.430;2023-02-10T13:01:12;29.17;;;14.18;;
44189;SDS011;29856;52.144;5.430;2023-02-10T13:03:44;33.53;;;15.65;;
44189;SDS011;29856;52.144;5.430;2023-02-10T13:06:27;33.35;;;14.40;;
44189;SDS011;29856;52.144;5.430;2023-02-10T13:09:10;28.45;;;15.43;;
44189;SDS011;29856;52.144;5.430;2023-02-10T13:14:39;32.25;;;16.02;;
44189;SDS011;29856;52.144;5.430;2023-02-10T13:17:08;33.15;;;16.27;;
44189;SDS011;29856;52.144;5.430;2023-02-10T13:22:09;33.97;;;15.32;;
44189;SDS011;29856;52.144;5.430;2023-02-10T13:25:07;36.00;;;14.95;;
44189;SDS011;29856;52.144;5.430;2023-02-10T13:30:46;28.20;;;14.65;;
44189;SDS011;29856;52.144;5.430;2023-02-10T13:33:19;32.33;;;16.00;;
44189;SDS011;29856;52.144;5.430;2023-02-10T13:35:49;34.00;;;16.55;;
44189;SDS011;29856;52.144;5.430;2023-02-10T13:38:17;32.85;;;15.77;;
44189;SDS011;29856;52.144;5.430;2023-02-10T13:40:45;31.10;;;15.85;;
44189;SDS011;29856;52.144;5.430;2023-02-10T13:43:17;31.65;;;15.43;;
44189;SDS011;29856;52.144;5.430;2023-02-10T13:45:58;30.88;;;15.73;;
44189;SDS011;29856;52.144;5.430;2023-02-10T13:48:26;38.08;;;17.42;;
44189;SDS011;29856;52.144;5.430;2023-02-10T13:50:58;32.65;;;15.68;;
44189;SDS011;29856;52.144;5.430;2023-02-10T13:59:00;31.45;;;17.30;;
44189;SDS011;29856;52.144;5.430;2023-02-10T14:04:01;37.88;;;17.52;;
44189;SDS011;29856;52.144;5.430;2023-02-10T14:06:32;41.30;;;21.63;;
44189;SDS011;29856;52.144;5.430;2023-02-10T14:09:04;45.05;;;22.00;;
44189;SDS011;29856;52.144;5.430;2023-02-10T14:11:44;42.50;;;21.98;;
44189;SDS011;29856;52.144;5.430;2023-02-10T14:14:18;40.83;;;21.40;;
44189;SDS011;29856;52.144;5.430;2023-02-10T14:16:47;39.75;;;21.38;;
44189;SDS011;29856;52.144;5.430;2023-02-10T14:19:28;41.45;;;23.13;;
44189;SDS011;29856;52.144;5.430;2023-02-10T14:21:56;48.33;;;22.88;;
44189;SDS011;29856;52.144;5.430;2023-02-10T14:24:26;44.63;;;25.70;;
44189;SDS011;29856;52.144;5.430;2023-02-10T14:27:00;48.40;;;24.05;;
44189;SDS011;29856;52.144;5.430;2023-02-10T14:29:28;50.20;;;25.15;;
44189;SDS011;29856;52.144;5.430;2023-02-10T14:31:57;37.65;;;23.50;;
44189;SDS011;29856;52.144;5.430;2023-02-10T14:34:29;44.80;;;24.77;;
44189;SDS011;29856;52.144;5.430;2023-02-10T14:37:00;50.30;;;25.95;;
44189;SDS011;29856;52.144;5.430;2023-02-10T14:39:37;46.97;;;26.52;;
44189;SDS011;29856;52.144;5.430;2023-02-10T14:42:03;47.25;;;28.73;;
44189;SDS011;29856;52.144;5.430;2023-02-10T14:44:40;52.13;;;28.90;;
44189;SDS011;29856;52.144;5.430;2023-02-10T14:47:19;51.67;;;29.52;;
44189;SDS011;29856;52.144;5.430;2023-02-10T14:49:50;50.35;;;28.60;;
44189;SDS011;29856;52.144;5.430;2023-02-10T14:52:21;54.92;;;30.58;;
44189;SDS011;29856;52.144;5.430;2023-02-10T14:54:51;45.40;;;29.00;;
44189;SDS011;29856;52.144;5.430;2023-02-10T14:57:16;50.63;;;29.88;;
44189;SDS011;29856;52.144;5.430;2023-02-10T14:59:43;53.00;;;32.00;;
44189;SDS011;29856;52.144;5.430;2023-02-10T15:02:17;47.85;;;30.08;;
44189;SDS011;29856;52.144;5.430;2023-02-10T15:04:55;47.92;;;30.08;;
44189;SDS011;29856;52.144;5.430;2023-02-10T15:07:28;49.03;;;29.77;;
44189;SDS011;29856;52.144;5.430;2023-02-10T15:09:58;52.90;;;31.65;;
44189;SDS011;29856;52.144;5.430;2023-02-10T15:12:48;47.03;;;30.10;;
44189;SDS011;29856;52.144;5.430;2023-02-10T15:15:27;48.85;;;31.13;;
44189;SDS011;29856;52.144;5.430;2023-02-10T15:17:58;48.28;;;30.58;;
44189;SDS011;29856;52.144;5.430;2023-02-10T15:20:28;46.03;;;28.27;;
44189;SDS011;29856;52.144;5.430;2023-02-10T15:25:32;41.28;;;27.92;;
44189;SDS011;29856;52.144;5.430;2023-02-10T15:30:43;50.20;;;29.52;;
44189;SDS011;29856;52.144;5.430;2023-02-10T15:33:19;40.38;;;24.92;;
44189;SDS011;29856;52.144;5.430;2023-02-10T15:38:40;50.38;;;28.35;;
44189;SDS011;29856;52.144;5.430;2023-02-10T15:41:19;48.70;;;29.95;;
44189;SDS011;29856;52.144;5.430;2023-02-10T15:46:49;55.85;;;34.63;;
44189;SDS011;29856;52.144;5.430;2023-02-10T15:49:19;55.60;;;30.50;;
44189;SDS011;29856;52.144;5.430;2023-02-10T15:51:47;49.35;;;31.75;;
44189;SDS011;29856;52.144;5.430;2023-02-10T15:54:18;57.72;;;33.53;;
44189;SDS011;29856;52.144;5.430;2023-02-10T15:56:58;55.58;;;31.42;;
44189;SDS011;29856;52.144;5.430;2023-02-10T15:59:26;54.47;;;31.77;;
44189;SDS011;29856;52.144;5.430;2023-02-10T16:01:52;42.67;;;26.15;;
44189;SDS011;29856;52.144;5.430;2023-02-10T16:04:21;38.53;;;24.52;;
44189;SDS011;29856;52.144;5.430;2023-02-10T16:06:46;43.00;;;24.55;;
44189;SDS011;29856;52.144;5.430;2023-02-10T16:09:12;40.80;;;25.48;;
44189;SDS011;29856;52.144;5.430;2023-02-10T16:11:38;43.60;;;25.80;;
44189;SDS011;29856;52.144;5.430;2023-02-10T16:14:03;46.40;;;26.67;;
44189;SDS011;29856;52.144;5.430;2023-02-10T16:16:29;46.40;;;25.83;;
44189;SDS011;29856;52.144;5.430;2023-02-10T16:18:54;48.92;;;28.45;;
44189;SDS011;29856;52.144;5.430;2023-02-10T16:21:20;43.00;;;25.58;;
44189;SDS011;29856;52.144;5.430;2023-02-10T16:23:46;46.25;;;26.83;;
44189;SDS011;29856;52.144;5.430;2023-02-10T16:26:19;60.03;;;38.03;;
44189;SDS011;29856;52.144;5.430;2023-02-10T16:28:46;41.38;;;25.15;;
44189;SDS011;29856;52.144;5.430;2023-02-10T16:31:11;43.60;;;25.15;;
44189;SDS011;29856;52.144;5.430;2023-02-10T16:33:37;47.53;;;28.70;;
44189;SDS011;29856;52.144;5.430;2023-02-10T16:36:05;46.53;;;28.20;;
44189;SDS011;29856;52.144;5.430;2023-02-10T16:38:31;51.38;;;30.63;;
44189;SDS011;29856;52.144;5.430;2023-02-10T16:40:56;54.70;;;31.75;;
44189;SDS011;29856;52.144;5.430;2023-02-10T16:43:22;49.38;;;29.88;;
44189;SDS011;29856;52.144;5.430;2023-02-10T16:45:47;51.42;;;30.67;;
44189;SDS011;29856;52.144;5.430;2023-02-10T16:48:13;52.22;;;31.85;;
44189;SDS011;29856;52.144;5.430;2023-02-10T16:50:39;102.07;;;55.00;;
44189;SDS011;29856;52.144;5.430;2023-02-10T16:53:07;64.50;;;38.55;;
44189;SDS011;29856;52.144;5.430;2023-02-10T16:55:34;50.80;;;30.08;;